Terminal Aerodrome Forecast
Issued by NWS

Home | Current Version | Previous Version | Text Only | Print | Product List | Glossary On
Versions: 1 2 3 4 5 6 7 8 9 10 11 12 13 14 15
676
FTUS46 KMFR 270520
TAFLMT
TAF
KLMT 270520Z 2706/2806 VRB03KT P6SM SCT060 BKN100 BKN200
     FM271700 20011G18KT P6SM BKN060 OVC100
     FM272200 25011G18KT P6SM BKN060 OVC100
     FM280100 30010KT P6SM VCSH BKN050 OVC100
     FM280500 VRB03KT P6SM VCSH BKN050 OVC100=

USA.gov is the U.S. government's official web portal to all federal, state and local government web resources and services.